Terminal Aerodrome Forecast
Issued by NWS

Home | Current Version | Previous Version | Text Only | Print | Product List | Glossary On
Versions: 1 2 3 4 5 6 7 8 9 10 11 12 13 14 15 16
000
FTUS42 KILM 300800 AAA
TAFCRE
TAF AMD
KCRE 300836Z 3009/0106 04005KT 6SM BR SCT007 SCT100
      TEMPO 3010/3012 3SM BR BKN005
     FM301300 06009KT P6SM SCT035=

USA.gov is the U.S. government's official web portal to all federal, state and local government web resources and services.